Buck Shoals, North Carolina
Current Conditions -  °F | °C
As of 11:55 PM on Saturday 22 Nov 2014 (Local Time) from KUKF Reporting Station
Overcast Overcast  
Wind Chill: 34°   Ceiling: 4100
Heat Index: 34°   Visibility: 10mi
Dew Point: 28°   Wind: 0mph
Humidity: 81%   Direction: NA
Pressure: 30.36"   Gusts: NA
Location:  36.116°N, 80.8154°W
Report Text: KUKF 230455Z AUTO 00000KT 10SM OVC041 01/M02 A3036 RMK AO2
Loading
Personal Weather Stations






























Interactive Weather Map New forecast layout! Learn more

10-Day Weather Forecast

Advertisements
Track Severe Weather on mobile